Terminal Aerodrome Forecast
Issued by NWS Wilmington, OH

Current Version | Previous Version | Graphics & Text | Print | Product List | Glossary On
Versions: 1 2 3 4 5 6 7 8 9 10 11 12 13 14 15 16 17 18 19 20 21 22 23 24 25 26 27 28 29
405
FTUS41 KILN 140252 AAB
TAFCVG
TAF AMD
KCVG 140252Z 1403/1506 24016G38KT P6SM OVC045
     FM140800 30010G20KT P6SM BKN025
     FM141200 33008KT P6SM BKN090
     FM141800 35004KT P6SM SCT250
     FM150200 VRB03KT P6SM BKN130=

USA.gov is the U.S. government's official web portal to all federal, state and local government web resources and services.